CSN7779 ZGGG-ZGSD
Flight info
| Callsign | CSN7779 |
|---|---|
| Flight time | 0h 38m |
| Altitude | 15700 |
| Route | DCT POU DCT VIBOS DCT ZUH DCT UJ DCT SANZAO |
| Aircraft | A320/M-SDE2E3FGHIRWXY/LB1 |
Departure
| Time | 2026-05-09 07:48 |
|---|---|
| Airport | Guangzhou Baiyun International Airport (ZGGG) |
Arrival
| Time | 2026-05-09 08:26 |
|---|---|
| Airport | Zhuhai Jinwan Airport (ZGSD) |
| Time | Latitude | Longitude | Altitude | Speed | Heading |
|---|---|---|---|---|---|
| 2026-05-09 07:31 | 23.40064 | 113.30646 | 54 ft | 0 kts | 1° |
| 2026-05-09 07:40 | 23.40059 | 113.30646 | 54 ft | 2 kts | 2° |
| 2026-05-09 07:40 | 23.40043 | 113.30645 | 47 ft | 2 kts | 3° |
| 2026-05-09 07:40 | 23.40026 | 113.30644 | 47 ft | 2 kts | 4° |
| 2026-05-09 07:40 | 23.40010 | 113.30643 | 48 ft | 2 kts | 7° |
| 2026-05-09 07:41 | 23.39994 | 113.30640 | 49 ft | 2 kts | 13° |
| 2026-05-09 07:41 | 23.39978 | 113.30635 | 51 ft | 2 kts | 39° |
| 2026-05-09 07:41 | 23.39973 | 113.30622 | 49 ft | 1 kts | 101° |
| 2026-05-09 07:43 | 23.39971 | 113.30627 | 51 ft | 1 kts | 104° |
| 2026-05-09 07:43 | 23.39968 | 113.30639 | 50 ft | 2 kts | 107° |
| 2026-05-09 07:43 | 23.39963 | 113.30658 | 54 ft | 3 kts | 106° |
| 2026-05-09 07:43 | 23.39947 | 113.30717 | 54 ft | 11 kts | 105° |
| 2026-05-09 07:44 | 23.39890 | 113.30759 | 54 ft | 11 kts | 183° |
| 2026-05-09 07:44 | 23.39775 | 113.30736 | 53 ft | 22 kts | 166° |
| 2026-05-09 07:44 | 23.39688 | 113.30803 | 54 ft | 13 kts | 187° |
| 2026-05-09 07:44 | 23.39594 | 113.30781 | 54 ft | 14 kts | 193° |
| 2026-05-09 07:45 | 23.39474 | 113.30747 | 54 ft | 28 kts | 194° |
| 2026-05-09 07:45 | 23.39248 | 113.30688 | 54 ft | 34 kts | 194° |
| 2026-05-09 07:45 | 23.39015 | 113.30624 | 51 ft | 35 kts | 193° |
| 2026-05-09 07:45 | 23.38779 | 113.30561 | 53 ft | 35 kts | 194° |
| 2026-05-09 07:46 | 23.38541 | 113.30496 | 54 ft | 36 kts | 194° |
| 2026-05-09 07:46 | 23.38299 | 113.30431 | 51 ft | 36 kts | 194° |
| 2026-05-09 07:46 | 23.38055 | 113.30365 | 52 ft | 36 kts | 194° |
| 2026-05-09 07:46 | 23.37846 | 113.30331 | 54 ft | 20 kts | 136° |
| 2026-05-09 07:47 | 23.37805 | 113.30456 | 54 ft | 18 kts | 107° |
| 2026-05-09 07:47 | 23.37799 | 113.30585 | 50 ft | 17 kts | 49° |
| 2026-05-09 07:47 | 23.37857 | 113.30615 | 53 ft | 1 kts | 12° |
| 2026-05-09 07:47 | 23.37867 | 113.30618 | 53 ft | 2 kts | 12° |
| 2026-05-09 07:48 | 23.38037 | 113.30662 | 52 ft | 67 kts | 14° |
| 2026-05-09 07:48 | 23.38749 | 113.30864 | 54 ft | 141 kts | 15° |
| 2026-05-09 07:48 | 23.39819 | 113.31139 | 574 ft | 164 kts | 13° |
| 2026-05-09 07:48 | 23.40933 | 113.31426 | 1563 ft | 161 kts | 15° |
| 2026-05-09 07:49 | 23.41941 | 113.31713 | 2768 ft | 139 kts | 17° |
| 2026-05-09 07:49 | 23.42987 | 113.32011 | 3062 ft | 187 kts | 16° |
| 2026-05-09 07:49 | 23.44376 | 113.32430 | 3368 ft | 221 kts | 16° |
| 2026-05-09 07:49 | 23.45936 | 113.32907 | 4048 ft | 242 kts | 15° |
| 2026-05-09 07:50 | 23.47611 | 113.33415 | 4770 ft | 254 kts | 14° |
| 2026-05-09 07:50 | 23.49316 | 113.33928 | 5611 ft | 256 kts | 14° |
| 2026-05-09 07:50 | 23.51082 | 113.34457 | 6552 ft | 269 kts | 13° |
| 2026-05-09 07:50 | 23.52918 | 113.35005 | 7561 ft | 276 kts | 13° |
| 2026-05-09 07:51 | 23.54783 | 113.35563 | 8633 ft | 280 kts | 13° |
| 2026-05-09 07:51 | 23.56668 | 113.36030 | 9665 ft | 283 kts | 8° |
| 2026-05-09 07:51 | 23.58624 | 113.36404 | 10616 ft | 287 kts | 6° |
| 2026-05-09 07:51 | 23.60608 | 113.36420 | 11392 ft | 286 kts | 344° |
| 2026-05-09 07:52 | 23.62354 | 113.35477 | 11688 ft | 280 kts | 316° |
| 2026-05-09 07:52 | 23.63460 | 113.33771 | 11932 ft | 277 kts | 289° |
| 2026-05-09 07:52 | 23.63837 | 113.31703 | 12524 ft | 286 kts | 277° |
| 2026-05-09 07:52 | 23.64126 | 113.29487 | 13052 ft | 304 kts | 278° |
| 2026-05-09 07:53 | 23.64447 | 113.27139 | 13572 ft | 320 kts | 278° |
| 2026-05-09 07:53 | 23.64783 | 113.24708 | 14257 ft | 327 kts | 278° |
| 2026-05-09 07:53 | 23.65128 | 113.22239 | 15018 ft | 330 kts | 278° |
| 2026-05-09 07:53 | 23.65430 | 113.19778 | 15510 ft | 333 kts | 272° |
| 2026-05-09 07:54 | 23.65249 | 113.17270 | 15676 ft | 334 kts | 258° |
| 2026-05-09 07:54 | 23.64443 | 113.14899 | 15728 ft | 335 kts | 243° |
| 2026-05-09 07:54 | 23.63077 | 113.12836 | 15731 ft | 338 kts | 228° |
| 2026-05-09 07:54 | 23.61339 | 113.11038 | 15729 ft | 340 kts | 225° |
| 2026-05-09 07:55 | 23.59517 | 113.09441 | 15729 ft | 343 kts | 214° |
| 2026-05-09 07:55 | 23.57338 | 113.08349 | 15728 ft | 348 kts | 200° |
| 2026-05-09 07:55 | 23.54945 | 113.07903 | 15726 ft | 353 kts | 185° |
| 2026-05-09 07:55 | 23.52481 | 113.07912 | 15728 ft | 354 kts | 183° |
| 2026-05-09 07:56 | 23.50011 | 113.07932 | 15728 ft | 354 kts | 183° |
| 2026-05-09 07:56 | 23.47539 | 113.07947 | 15731 ft | 362 kts | 183° |
| 2026-05-09 07:56 | 23.44922 | 113.07955 | 15727 ft | 389 kts | 183° |
| 2026-05-09 07:56 | 23.42121 | 113.07961 | 15725 ft | 414 kts | 182° |
| 2026-05-09 07:57 | 23.39165 | 113.07970 | 15725 ft | 434 kts | 182° |
| 2026-05-09 07:57 | 23.36132 | 113.07988 | 15727 ft | 436 kts | 182° |
| 2026-05-09 07:57 | 23.33105 | 113.08012 | 15726 ft | 436 kts | 182° |
| 2026-05-09 07:57 | 23.30071 | 113.08038 | 15726 ft | 436 kts | 182° |
| 2026-05-09 07:58 | 23.27041 | 113.08276 | 15725 ft | 439 kts | 173° |
| 2026-05-09 07:58 | 23.24072 | 113.09063 | 15727 ft | 442 kts | 163° |
| 2026-05-09 07:58 | 23.21212 | 113.10312 | 15724 ft | 443 kts | 159° |
| 2026-05-09 07:58 | 23.18369 | 113.11616 | 15722 ft | 443 kts | 159° |
| 2026-05-09 07:59 | 23.15535 | 113.12918 | 15721 ft | 443 kts | 159° |
| 2026-05-09 07:59 | 23.12690 | 113.14219 | 15723 ft | 443 kts | 159° |
| 2026-05-09 07:59 | 23.09855 | 113.15508 | 15722 ft | 443 kts | 159° |
| 2026-05-09 07:59 | 23.07010 | 113.16797 | 15721 ft | 442 kts | 159° |
| 2026-05-09 08:00 | 23.04170 | 113.18082 | 15722 ft | 442 kts | 159° |
| 2026-05-09 08:00 | 23.01318 | 113.19344 | 15716 ft | 442 kts | 161° |
| 2026-05-09 08:00 | 22.98464 | 113.20465 | 15719 ft | 441 kts | 163° |
| 2026-05-09 08:00 | 22.95546 | 113.21489 | 15719 ft | 441 kts | 165° |
| 2026-05-09 08:01 | 22.92620 | 113.22453 | 15719 ft | 440 kts | 165° |
| 2026-05-09 08:01 | 22.89676 | 113.23406 | 15718 ft | 440 kts | 165° |
| 2026-05-09 08:01 | 22.86740 | 113.24369 | 15719 ft | 440 kts | 165° |
| 2026-05-09 08:01 | 22.83815 | 113.25351 | 15718 ft | 440 kts | 165° |
| 2026-05-09 08:02 | 22.80894 | 113.26351 | 15718 ft | 440 kts | 164° |
| 2026-05-09 08:02 | 22.77970 | 113.27367 | 15719 ft | 440 kts | 164° |
| 2026-05-09 08:02 | 22.75062 | 113.28386 | 15718 ft | 440 kts | 164° |
| 2026-05-09 08:02 | 22.72152 | 113.29407 | 15718 ft | 440 kts | 164° |
| 2026-05-09 08:03 | 22.69234 | 113.30428 | 15715 ft | 440 kts | 164° |
| 2026-05-09 08:03 | 22.66320 | 113.31443 | 15716 ft | 440 kts | 164° |
| 2026-05-09 08:03 | 22.63408 | 113.32453 | 15715 ft | 440 kts | 164° |
| 2026-05-09 08:03 | 22.60495 | 113.33458 | 15716 ft | 440 kts | 164° |
| 2026-05-09 08:04 | 22.57581 | 113.34463 | 15719 ft | 439 kts | 164° |
| 2026-05-09 08:04 | 22.54663 | 113.35469 | 15715 ft | 439 kts | 164° |
| 2026-05-09 08:04 | 22.51756 | 113.36471 | 15714 ft | 439 kts | 164° |
| 2026-05-09 08:04 | 22.48844 | 113.37476 | 15720 ft | 439 kts | 164° |
| 2026-05-09 08:05 | 22.45930 | 113.38481 | 15714 ft | 439 kts | 164° |
| 2026-05-09 08:05 | 22.43026 | 113.39485 | 15645 ft | 436 kts | 164° |
| 2026-05-09 08:05 | 22.40196 | 113.40466 | 15498 ft | 420 kts | 164° |
| 2026-05-09 08:05 | 22.37447 | 113.41418 | 15012 ft | 409 kts | 164° |
| 2026-05-09 08:06 | 22.34751 | 113.42347 | 14364 ft | 404 kts | 164° |
| 2026-05-09 08:06 | 22.32105 | 113.43255 | 13659 ft | 390 kts | 163° |
| 2026-05-09 08:06 | 22.29580 | 113.44121 | 12791 ft | 372 kts | 164° |
| 2026-05-09 08:06 | 22.27162 | 113.44948 | 11928 ft | 358 kts | 165° |
| 2026-05-09 08:07 | 22.24765 | 113.45400 | 11118 ft | 344 kts | 180° |
| 2026-05-09 08:07 | 22.22436 | 113.45138 | 10343 ft | 331 kts | 196° |
| 2026-05-09 08:07 | 22.20338 | 113.44251 | 9596 ft | 320 kts | 211° |
| 2026-05-09 08:07 | 22.18576 | 113.42863 | 8824 ft | 309 kts | 225° |
| 2026-05-09 08:08 | 22.17071 | 113.41259 | 8111 ft | 301 kts | 226° |
| 2026-05-09 08:08 | 22.15596 | 113.39690 | 7419 ft | 295 kts | 225° |
| 2026-05-09 08:08 | 22.14148 | 113.38154 | 6799 ft | 288 kts | 225° |
| 2026-05-09 08:08 | 22.12756 | 113.36678 | 6214 ft | 281 kts | 225° |
| 2026-05-09 08:09 | 22.11371 | 113.35209 | 5671 ft | 276 kts | 225° |
| 2026-05-09 08:09 | 22.10051 | 113.33811 | 5514 ft | 255 kts | 225° |
| 2026-05-09 08:09 | 22.08853 | 113.32541 | 5508 ft | 230 kts | 225° |
| 2026-05-09 08:09 | 22.07721 | 113.31340 | 5510 ft | 224 kts | 225° |
| 2026-05-09 08:10 | 22.06636 | 113.30190 | 5513 ft | 217 kts | 225° |
| 2026-05-09 08:10 | 22.05557 | 113.29048 | 5509 ft | 217 kts | 225° |
| 2026-05-09 08:10 | 22.04479 | 113.27906 | 5511 ft | 217 kts | 225° |
| 2026-05-09 08:10 | 22.03400 | 113.26766 | 5443 ft | 218 kts | 225° |
| 2026-05-09 08:11 | 22.02311 | 113.25612 | 5159 ft | 218 kts | 225° |
| 2026-05-09 08:11 | 22.01254 | 113.24502 | 5082 ft | 205 kts | 222° |
| 2026-05-09 08:11 | 22.00075 | 113.23720 | 4900 ft | 198 kts | 202° |
| 2026-05-09 08:11 | 21.98746 | 113.23427 | 4645 ft | 195 kts | 181° |
| 2026-05-09 08:12 | 21.96240 | 113.24251 | 4122 ft | 189 kts | 143° |
| 2026-05-09 08:12 | 21.95311 | 113.25235 | 3860 ft | 186 kts | 129° |
| 2026-05-09 08:12 | 21.94475 | 113.26279 | 3606 ft | 185 kts | 129° |
| 2026-05-09 08:13 | 21.93617 | 113.27341 | 3355 ft | 185 kts | 129° |
| 2026-05-09 08:13 | 21.92829 | 113.28421 | 3157 ft | 180 kts | 114° |
| 2026-05-09 08:13 | 21.92735 | 113.29681 | 2914 ft | 176 kts | 69° |
| 2026-05-09 08:13 | 21.93599 | 113.30647 | 2464 ft | 189 kts | 35° |
| 2026-05-09 08:14 | 21.94777 | 113.31340 | 1949 ft | 195 kts | 30° |
| 2026-05-09 08:14 | 21.95866 | 113.32176 | 1602 ft | 184 kts | 49° |
| 2026-05-09 08:14 | 21.96617 | 113.33169 | 1334 ft | 162 kts | 54° |
| 2026-05-09 08:14 | 21.97306 | 113.34127 | 827 ft | 165 kts | 50° |
| 2026-05-09 08:15 | 21.98145 | 113.34970 | 480 ft | 166 kts | 44° |
| 2026-05-09 08:15 | 21.98938 | 113.35830 | 227 ft | 157 kts | 60° |
| 2026-05-09 08:15 | 21.99700 | 113.36605 | 45 ft | 146 kts | 42° |
| 2026-05-09 08:15 | 22.00357 | 113.37340 | 26 ft | 129 kts | 42° |
| 2026-05-09 08:16 | 22.00982 | 113.38083 | 364 ft | 153 kts | 53° |
| 2026-05-09 08:16 | 22.01753 | 113.39095 | 1122 ft | 191 kts | 54° |
| 2026-05-09 08:16 | 22.02388 | 113.40374 | 2386 ft | 196 kts | 78° |
| 2026-05-09 08:16 | 22.02277 | 113.41805 | 3547 ft | 196 kts | 114° |
| 2026-05-09 08:17 | 22.01303 | 113.42904 | 4207 ft | 214 kts | 155° |
| 2026-05-09 08:17 | 21.99831 | 113.43212 | 4330 ft | 218 kts | 187° |
| 2026-05-09 08:17 | 21.98460 | 113.42576 | 4330 ft | 218 kts | 223° |
| 2026-05-09 08:17 | 21.97669 | 113.41212 | 4292 ft | 219 kts | 256° |
| 2026-05-09 08:18 | 21.97580 | 113.39556 | 3945 ft | 223 kts | 274° |
| 2026-05-09 08:18 | 21.97712 | 113.37938 | 3908 ft | 209 kts | 276° |
| 2026-05-09 08:18 | 21.97699 | 113.36446 | 3913 ft | 191 kts | 251° |
| 2026-05-09 08:18 | 21.97157 | 113.35205 | 3868 ft | 178 kts | 235° |
| 2026-05-09 08:19 | 21.96177 | 113.34130 | 3484 ft | 232 kts | 211° |
| 2026-05-09 08:19 | 21.94719 | 113.33256 | 3478 ft | 245 kts | 206° |
| 2026-05-09 08:19 | 21.93205 | 113.32445 | 3524 ft | 234 kts | 205° |
| 2026-05-09 08:19 | 21.91826 | 113.31715 | 3860 ft | 212 kts | 208° |
| 2026-05-09 08:20 | 21.90374 | 113.31041 | 4268 ft | 249 kts | 193° |
| 2026-05-09 08:20 | 21.88540 | 113.30901 | 4491 ft | 270 kts | 176° |
| 2026-05-09 08:20 | 21.86726 | 113.30836 | 4489 ft | 254 kts | 195° |
| 2026-05-09 08:20 | 21.85253 | 113.29948 | 4493 ft | 237 kts | 226° |
| 2026-05-09 08:21 | 21.84268 | 113.28605 | 4496 ft | 221 kts | 235° |
| 2026-05-09 08:21 | 21.83660 | 113.27130 | 4492 ft | 218 kts | 265° |
| 2026-05-09 08:21 | 21.83916 | 113.25552 | 4494 ft | 217 kts | 300° |
| 2026-05-09 08:21 | 21.84904 | 113.24337 | 4413 ft | 217 kts | 320° |
| 2026-05-09 08:22 | 21.86076 | 113.23318 | 4291 ft | 217 kts | 323° |
| 2026-05-09 08:22 | 21.87384 | 113.22548 | 4162 ft | 215 kts | 349° |
| 2026-05-09 08:22 | 21.88845 | 113.22678 | 4005 ft | 213 kts | 25° |
| 2026-05-09 08:22 | 21.89665 | 113.23245 | 3894 ft | 212 kts | 43° |
| 2026-05-09 08:23 | 21.90473 | 113.24537 | 3659 ft | 207 kts | 68° |
| 2026-05-09 08:23 | 21.90956 | 113.25997 | 3362 ft | 207 kts | 74° |
| 2026-05-09 08:23 | 21.91319 | 113.27525 | 2841 ft | 213 kts | 78° |
| 2026-05-09 08:23 | 21.92266 | 113.29247 | 2136 ft | 205 kts | 36° |
| 2026-05-09 08:24 | 21.93120 | 113.29741 | 1606 ft | 207 kts | 28° |
| 2026-05-09 08:24 | 21.94266 | 113.30485 | 1271 ft | 172 kts | 48° |
| 2026-05-09 08:24 | 21.94981 | 113.31326 | 1234 ft | 138 kts | 53° |
| 2026-05-09 08:24 | 21.95758 | 113.32323 | 876 ft | 129 kts | 53° |
| 2026-05-09 08:25 | 21.96358 | 113.33093 | 705 ft | 143 kts | 46° |
| 2026-05-09 08:25 | 21.96807 | 113.33591 | 785 ft | 133 kts | 47° |
| 2026-05-09 08:25 | 21.97444 | 113.34241 | 598 ft | 124 kts | 45° |
| 2026-05-09 08:25 | 21.98086 | 113.34908 | 420 ft | 126 kts | 50° |
| 2026-05-09 08:26 | 21.98692 | 113.35553 | 229 ft | 124 kts | 50° |
| 2026-05-09 08:26 | 21.99300 | 113.36201 | 90 ft | 122 kts | 50° |
| 2026-05-09 08:26 | 21.99870 | 113.36813 | 20 ft | 104 kts | 45° |
| 2026-05-09 08:26 | 22.00192 | 113.37159 | 16 ft | 45 kts | 44° |
| 2026-05-09 08:27 | 22.00408 | 113.37391 | 17 ft | 43 kts | 43° |
| 2026-05-09 08:27 | 22.00615 | 113.37600 | 20 ft | 33 kts | 39° |
| 2026-05-09 08:27 | 22.00816 | 113.37692 | 17 ft | 32 kts | 18° |
| 2026-05-09 08:27 | 22.01019 | 113.37789 | 16 ft | 31 kts | 47° |
| 2026-05-09 08:28 | 22.01179 | 113.37956 | 17 ft | 32 kts | 46° |
| 2026-05-09 08:28 | 22.01341 | 113.38128 | 16 ft | 33 kts | 47° |
| 2026-05-09 08:28 | 22.01481 | 113.38245 | 17 ft | 15 kts | 333° |
| 2026-05-09 08:28 | 22.01566 | 113.38188 | 16 ft | 19 kts | 300° |
| 2026-05-09 08:29 | 22.01661 | 113.38220 | 16 ft | 20 kts | 45° |
| 2026-05-09 08:29 | 22.01760 | 113.38315 | 18 ft | 15 kts | 46° |
| 2026-05-09 08:29 | 22.01831 | 113.38380 | 16 ft | 0 kts | 13° |
| 2026-05-09 08:29 | 22.01873 | 113.38350 | 16 ft | 13 kts | 311° |
| 2026-05-09 08:30 | 22.01878 | 113.38343 | 16 ft | 0 kts | 310° |